Portada
METAR-TAF:

METAR-TAF

Aeropuertos :

Colonel James Jabara Airport

Wichita, Kansas, Estados Unidos

latitud: 37-44-59N, longitud: 097-13-08W, altitud: 432 m

Observación

El informe se hizo hace 20 minutos, a las 06:54 UTC
Viento 9 kt del sur-sureste
Temperatura 26°C
Humedad 79%
Presión 1012 hPa
Visibilidad: 16.1 km
Cielo despejado

METAR: KAAO 070654Z AUTO 16009KT 10SM CLR 26/22 A2988 RMK AO2 SLP100 T02560217

Hora: 02:14 (07:14 UTC)


TAF: falta

Observaciones y pronósticos meteorológicos de más de 4000 aeropuertos (mensajes METAR y TAF).

Los puntos amarillos y rojos representan las estaciones disponibles.

Ponga el ratón en el punto deseado para ver el nombre de la estación.

Haga clic para ver las observaciones y los pronósticos meteorológicos.

Para cambiar el mapa : haga clic en los botones verdes con una cruz de color negro para hacer un zoom, en el botón verde con un guión para alejar o en las flechas verdes para mapas adyacentes.


METAR-TAF: